sensor_id;sensor_type;location;lat;lon;timestamp;temperature;humidity
10411;DHT22;5251;52.112;8.606;2022-12-29T00:01:35;12.80;99.90
10411;DHT22;5251;52.112;8.606;2022-12-29T00:04:01;12.80;99.90
10411;DHT22;5251;52.112;8.606;2022-12-29T00:06:28;12.80;99.90
10411;DHT22;5251;52.112;8.606;2022-12-29T00:08:53;12.90;99.90
10411;DHT22;5251;52.112;8.606;2022-12-29T00:11:26;12.90;99.90
10411;DHT22;5251;52.112;8.606;2022-12-29T00:13:53;12.80;99.90
10411;DHT22;5251;52.112;8.606;2022-12-29T00:16:39;12.90;99.90
10411;DHT22;5251;52.112;8.606;2022-12-29T00:19:05;12.90;99.90
10411;DHT22;5251;52.112;8.606;2022-12-29T00:21:31;13.00;99.90
10411;DHT22;5251;52.112;8.606;2022-12-29T00:24:18;13.00;99.90
10411;DHT22;5251;52.112;8.606;2022-12-29T00:27:10;13.00;99.90
10411;DHT22;5251;52.112;8.606;2022-12-29T00:29:54;13.00;99.90
10411;DHT22;5251;52.112;8.606;2022-12-29T00:32:39;13.00;99.90
10411;DHT22;5251;52.112;8.606;2022-12-29T00:35:30;13.00;99.90
10411;DHT22;5251;52.112;8.606;2022-12-29T00:38:03;13.00;99.90
10411;DHT22;5251;52.112;8.606;2022-12-29T00:40:47;13.10;99.90
10411;DHT22;5251;52.112;8.606;2022-12-29T00:43:31;13.00;99.90
10411;DHT22;5251;52.112;8.606;2022-12-29T00:46:15;13.10;99.90
10411;DHT22;5251;52.112;8.606;2022-12-29T00:48:41;13.10;99.90
10411;DHT22;5251;52.112;8.606;2022-12-29T00:51:25;13.10;99.90
10411;DHT22;5251;52.112;8.606;2022-12-29T00:53:50;13.10;99.90
10411;DHT22;5251;52.112;8.606;2022-12-29T00:56:16;13.10;99.90
10411;DHT22;5251;52.112;8.606;2022-12-29T00:58:42;13.10;99.90
10411;DHT22;5251;52.112;8.606;2022-12-29T01:01:08;13.10;99.90
10411;DHT22;5251;52.112;8.606;2022-12-29T01:03:36;13.20;99.90
10411;DHT22;5251;52.112;8.606;2022-12-29T01:06:07;13.20;99.90
10411;DHT22;5251;52.112;8.606;2022-12-29T01:08:33;13.20;99.90
10411;DHT22;5251;52.112;8.606;2022-12-29T01:11:10;13.10;99.90
10411;DHT22;5251;52.112;8.606;2022-12-29T01:13:36;13.20;99.90
10411;DHT22;5251;52.112;8.606;2022-12-29T01:16:04;13.30;99.90
10411;DHT22;5251;52.112;8.606;2022-12-29T01:18:29;13.30;99.90
10411;DHT22;5251;52.112;8.606;2022-12-29T01:21:03;13.30;99.90
10411;DHT22;5251;52.112;8.606;2022-12-29T01:23:30;13.30;99.90
10411;DHT22;5251;52.112;8.606;2022-12-29T01:25:56;13.30;99.90
10411;DHT22;5251;52.112;8.606;2022-12-29T01:28:22;13.30;99.90
10411;DHT22;5251;52.112;8.606;2022-12-29T01:30:47;13.30;99.90
10411;DHT22;5251;52.112;8.606;2022-12-29T01:33:13;13.30;99.90
10411;DHT22;5251;52.112;8.606;2022-12-29T01:35:39;13.20;99.90
10411;DHT22;5251;52.112;8.606;2022-12-29T01:38:05;13.30;99.90
10411;DHT22;5251;52.112;8.606;2022-12-29T01:40:30;13.30;99.90
10411;DHT22;5251;52.112;8.606;2022-12-29T01:42:56;13.30;99.90
10411;DHT22;5251;52.112;8.606;2022-12-29T01:45:22;13.30;99.90
10411;DHT22;5251;52.112;8.606;2022-12-29T01:47:52;13.20;99.90
10411;DHT22;5251;52.112;8.606;2022-12-29T01:53:00;13.30;99.90
10411;DHT22;5251;52.112;8.606;2022-12-29T01:55:29;13.20;99.90
10411;DHT22;5251;52.112;8.606;2022-12-29T01:57:59;13.20;99.90
10411;DHT22;5251;52.112;8.606;2022-12-29T02:00:26;13.20;99.90
10411;DHT22;5251;52.112;8.606;2022-12-29T02:02:52;13.20;99.90
10411;DHT22;5251;52.112;8.606;2022-12-29T02:05:33;13.20;99.90
10411;DHT22;5251;52.112;8.606;2022-12-29T02:08:00;13.20;99.90
10411;DHT22;5251;52.112;8.606;2022-12-29T02:10:28;13.20;99.90
10411;DHT22;5251;52.112;8.606;2022-12-29T02:12:55;13.20;99.90
10411;DHT22;5251;52.112;8.606;2022-12-29T02:16:16;13.20;99.90
10411;DHT22;5251;52.112;8.606;2022-12-29T02:24:05;13.30;99.90
10411;DHT22;5251;52.112;8.606;2022-12-29T02:32:01;13.20;99.90
10411;DHT22;5251;52.112;8.606;2022-12-29T02:37:20;13.20;99.90
10411;DHT22;5251;52.112;8.606;2022-12-29T02:39:57;13.10;99.90
10411;DHT22;5251;52.112;8.606;2022-12-29T02:42:49;13.10;99.90
10411;DHT22;5251;52.112;8.606;2022-12-29T02:53:01;13.00;99.90
10411;DHT22;5251;52.112;8.606;2022-12-29T02:55:28;13.00;99.90
10411;DHT22;5251;52.112;8.606;2022-12-29T03:00:40;13.00;99.90
10411;DHT22;5251;52.112;8.606;2022-12-29T03:11:29;13.00;99.90
10411;DHT22;5251;52.112;8.606;2022-12-29T03:17:25;13.00;99.90
10411;DHT22;5251;52.112;8.606;2022-12-29T03:19:52;13.10;99.90
10411;DHT22;5251;52.112;8.606;2022-12-29T03:22:25;13.10;99.90
10411;DHT22;5251;52.112;8.606;2022-12-29T03:25:07;13.10;99.90
10411;DHT22;5251;52.112;8.606;2022-12-29T03:27:41;13.10;99.90
10411;DHT22;5251;52.112;8.606;2022-12-29T03:30:08;13.10;99.90
10411;DHT22;5251;52.112;8.606;2022-12-29T03:32:50;13.20;99.90
10411;DHT22;5251;52.112;8.606;2022-12-29T03:35:19;13.30;99.90
10411;DHT22;5251;52.112;8.606;2022-12-29T03:38:18;13.20;99.90
10411;DHT22;5251;52.112;8.606;2022-12-29T03:40:48;13.30;99.90
10411;DHT22;5251;52.112;8.606;2022-12-29T03:43:15;13.30;99.90
10411;DHT22;5251;52.112;8.606;2022-12-29T03:45:42;13.30;99.90
10411;DHT22;5251;52.112;8.606;2022-12-29T03:48:07;13.30;99.90
10411;DHT22;5251;52.112;8.606;2022-12-29T03:50:33;13.40;99.90
10411;DHT22;5251;52.112;8.606;2022-12-29T03:52:59;13.40;99.90
10411;DHT22;5251;52.112;8.606;2022-12-29T03:55:24;13.50;99.90
10411;DHT22;5251;52.112;8.606;2022-12-29T03:57:50;13.40;99.90
10411;DHT22;5251;52.112;8.606;2022-12-29T04:00:15;13.50;99.90
10411;DHT22;5251;52.112;8.606;2022-12-29T04:02:41;13.50;99.90
10411;DHT22;5251;52.112;8.606;2022-12-29T04:05:07;13.50;99.90
10411;DHT22;5251;52.112;8.606;2022-12-29T04:07:33;13.50;99.90
10411;DHT22;5251;52.112;8.606;2022-12-29T04:09:58;13.50;99.90
10411;DHT22;5251;52.112;8.606;2022-12-29T04:12:24;13.60;99.90
10411;DHT22;5251;52.112;8.606;2022-12-29T04:14:49;13.60;99.90
10411;DHT22;5251;52.112;8.606;2022-12-29T04:17:15;13.60;99.90
10411;DHT22;5251;52.112;8.606;2022-12-29T04:19:40;13.60;99.90
10411;DHT22;5251;52.112;8.606;2022-12-29T04:22:06;13.70;99.90
10411;DHT22;5251;52.112;8.606;2022-12-29T04:24:32;13.70;99.90
10411;DHT22;5251;52.112;8.606;2022-12-29T04:26:57;13.70;99.90
10411;DHT22;5251;52.112;8.606;2022-12-29T04:29:23;13.70;99.90
10411;DHT22;5251;52.112;8.606;2022-12-29T04:31:48;13.80;99.90
10411;DHT22;5251;52.112;8.606;2022-12-29T04:34:14;13.70;99.90
10411;DHT22;5251;52.112;8.606;2022-12-29T04:36:40;13.80;99.90
10411;DHT22;5251;52.112;8.606;2022-12-29T04:39:06;13.80;99.90
10411;DHT22;5251;52.112;8.606;2022-12-29T04:41:32;13.80;99.90
10411;DHT22;5251;52.112;8.606;2022-12-29T04:43:57;13.80;99.90
10411;DHT22;5251;52.112;8.606;2022-12-29T04:46:23;13.80;99.90
10411;DHT22;5251;52.112;8.606;2022-12-29T04:48:48;13.80;99.90
10411;DHT22;5251;52.112;8.606;2022-12-29T04:51:14;13.80;99.90
10411;DHT22;5251;52.112;8.606;2022-12-29T04:53:40;13.80;99.90
10411;DHT22;5251;52.112;8.606;2022-12-29T04:56:05;13.80;99.90
10411;DHT22;5251;52.112;8.606;2022-12-29T04:58:31;13.80;99.90
10411;DHT22;5251;52.112;8.606;2022-12-29T05:00:57;13.70;99.90
10411;DHT22;5251;52.112;8.606;2022-12-29T05:03:22;13.70;99.90
10411;DHT22;5251;52.112;8.606;2022-12-29T05:05:48;13.60;99.90
10411;DHT22;5251;52.112;8.606;2022-12-29T05:08:13;13.60;99.90
10411;DHT22;5251;52.112;8.606;2022-12-29T05:10:39;13.50;99.90
10411;DHT22;5251;52.112;8.606;2022-12-29T05:13:05;13.50;99.90
10411;DHT22;5251;52.112;8.606;2022-12-29T05:15:31;13.50;99.90
10411;DHT22;5251;52.112;8.606;2022-12-29T05:17:56;13.50;99.90
10411;DHT22;5251;52.112;8.606;2022-12-29T05:20:22;13.50;99.90
10411;DHT22;5251;52.112;8.606;2022-12-29T05:22:47;13.40;99.90
10411;DHT22;5251;52.112;8.606;2022-12-29T05:25:13;13.40;99.90
10411;DHT22;5251;52.112;8.606;2022-12-29T05:27:38;13.40;99.90
10411;DHT22;5251;52.112;8.606;2022-12-29T05:30:04;13.30;99.90
10411;DHT22;5251;52.112;8.606;2022-12-29T05:32:30;13.30;99.90
10411;DHT22;5251;52.112;8.606;2022-12-29T05:34:56;13.30;99.90
10411;DHT22;5251;52.112;8.606;2022-12-29T05:37:21;13.30;99.90
10411;DHT22;5251;52.112;8.606;2022-12-29T05:39:47;13.30;99.90
10411;DHT22;5251;52.112;8.606;2022-12-29T05:42:12;13.30;99.90
10411;DHT22;5251;52.112;8.606;2022-12-29T05:44:38;13.30;99.90
10411;DHT22;5251;52.112;8.606;2022-12-29T05:50:26;13.30;99.90
10411;DHT22;5251;52.112;8.606;2022-12-29T05:52:51;13.30;99.90
10411;DHT22;5251;52.112;8.606;2022-12-29T05:55:17;13.30;99.90
10411;DHT22;5251;52.112;8.606;2022-12-29T05:57:42;13.30;99.90
10411;DHT22;5251;52.112;8.606;2022-12-29T06:00:08;13.30;99.90
10411;DHT22;5251;52.112;8.606;2022-12-29T06:02:34;13.30;99.90
10411;DHT22;5251;52.112;8.606;2022-12-29T06:05:00;13.30;99.90
10411;DHT22;5251;52.112;8.606;2022-12-29T06:07:25;13.30;99.90
10411;DHT22;5251;52.112;8.606;2022-12-29T06:09:51;13.30;99.90
10411;DHT22;5251;52.112;8.606;2022-12-29T06:12:16;13.40;99.90
10411;DHT22;5251;52.112;8.606;2022-12-29T06:14:42;13.30;99.90
10411;DHT22;5251;52.112;8.606;2022-12-29T06:17:08;13.40;99.90
10411;DHT22;5251;52.112;8.606;2022-12-29T06:19:33;13.50;99.90
10411;DHT22;5251;52.112;8.606;2022-12-29T06:21:59;13.50;99.90
10411;DHT22;5251;52.112;8.606;2022-12-29T06:24:24;13.50;99.90
10411;DHT22;5251;52.112;8.606;2022-12-29T06:26:50;13.50;99.90
10411;DHT22;5251;52.112;8.606;2022-12-29T06:29:16;13.50;99.90
10411;DHT22;5251;52.112;8.606;2022-12-29T06:31:44;13.40;99.90
10411;DHT22;5251;52.112;8.606;2022-12-29T06:34:14;13.30;99.90
10411;DHT22;5251;52.112;8.606;2022-12-29T06:36:39;13.20;99.90
10411;DHT22;5251;52.112;8.606;2022-12-29T06:39:05;13.10;99.90
10411;DHT22;5251;52.112;8.606;2022-12-29T06:41:31;13.00;99.90
10411;DHT22;5251;52.112;8.606;2022-12-29T06:43:57;13.00;99.90
10411;DHT22;5251;52.112;8.606;2022-12-29T06:46:22;12.90;99.90
10411;DHT22;5251;52.112;8.606;2022-12-29T06:48:48;12.90;99.90
10411;DHT22;5251;52.112;8.606;2022-12-29T06:51:14;12.80;99.90
10411;DHT22;5251;52.112;8.606;2022-12-29T06:53:39;12.70;99.90
10411;DHT22;5251;52.112;8.606;2022-12-29T06:56:05;12.70;99.90
10411;DHT22;5251;52.112;8.606;2022-12-29T06:58:31;12.60;99.90
10411;DHT22;5251;52.112;8.606;2022-12-29T07:00:56;12.50;99.90
10411;DHT22;5251;52.112;8.606;2022-12-29T07:03:22;12.40;99.90
10411;DHT22;5251;52.112;8.606;2022-12-29T07:05:47;12.40;99.90
10411;DHT22;5251;52.112;8.606;2022-12-29T07:08:13;12.40;99.90
10411;DHT22;5251;52.112;8.606;2022-12-29T07:10:39;12.30;99.90
10411;DHT22;5251;52.112;8.606;2022-12-29T07:13:05;12.30;99.90
10411;DHT22;5251;52.112;8.606;2022-12-29T07:15:33;12.30;99.90
10411;DHT22;5251;52.112;8.606;2022-12-29T07:17:58;12.20;99.90
10411;DHT22;5251;52.112;8.606;2022-12-29T07:20:24;12.20;99.90
10411;DHT22;5251;52.112;8.606;2022-12-29T07:22:50;12.10;99.90
10411;DHT22;5251;52.112;8.606;2022-12-29T07:25:15;12.10;99.90
10411;DHT22;5251;52.112;8.606;2022-12-29T07:27:41;12.00;99.90
10411;DHT22;5251;52.112;8.606;2022-12-29T07:30:07;12.00;99.90
10411;DHT22;5251;52.112;8.606;2022-12-29T07:32:33;12.00;99.90
10411;DHT22;5251;52.112;8.606;2022-12-29T07:34:59;11.90;99.90
10411;DHT22;5251;52.112;8.606;2022-12-29T07:37:25;11.90;99.90
10411;DHT22;5251;52.112;8.606;2022-12-29T07:39:50;11.90;99.90
10411;DHT22;5251;52.112;8.606;2022-12-29T07:42:16;11.80;99.90
10411;DHT22;5251;52.112;8.606;2022-12-29T07:44:42;11.80;99.90
10411;DHT22;5251;52.112;8.606;2022-12-29T07:47:07;11.80;99.90
10411;DHT22;5251;52.112;8.606;2022-12-29T07:49:33;11.70;99.90
10411;DHT22;5251;52.112;8.606;2022-12-29T07:51:58;11.70;99.90
10411;DHT22;5251;52.112;8.606;2022-12-29T07:54:24;11.80;99.90
10411;DHT22;5251;52.112;8.606;2022-12-29T07:56:50;11.80;99.90
10411;DHT22;5251;52.112;8.606;2022-12-29T07:59:15;11.70;99.90
10411;DHT22;5251;52.112;8.606;2022-12-29T08:01:41;11.70;99.90
10411;DHT22;5251;52.112;8.606;2022-12-29T08:04:06;11.80;99.90
10411;DHT22;5251;52.112;8.606;2022-12-29T08:06:32;11.80;99.90
10411;DHT22;5251;52.112;8.606;2022-12-29T08:08:58;11.80;99.90
10411;DHT22;5251;52.112;8.606;2022-12-29T08:11:25;11.80;99.90
10411;DHT22;5251;52.112;8.606;2022-12-29T08:13:51;11.80;99.90
10411;DHT22;5251;52.112;8.606;2022-12-29T08:16:17;11.80;99.90
10411;DHT22;5251;52.112;8.606;2022-12-29T08:18:43;11.80;99.90
10411;DHT22;5251;52.112;8.606;2022-12-29T08:21:09;11.90;99.90
10411;DHT22;5251;52.112;8.606;2022-12-29T08:23:35;11.90;99.90
10411;DHT22;5251;52.112;8.606;2022-12-29T08:26:02;11.90;99.90
10411;DHT22;5251;52.112;8.606;2022-12-29T08:28:29;11.90;99.90
10411;DHT22;5251;52.112;8.606;2022-12-29T08:30:57;11.90;99.90
10411;DHT22;5251;52.112;8.606;2022-12-29T08:33:23;11.90;99.90
10411;DHT22;5251;52.112;8.606;2022-12-29T08:35:49;12.00;99.90
10411;DHT22;5251;52.112;8.606;2022-12-29T08:38:14;12.00;99.90
10411;DHT22;5251;52.112;8.606;2022-12-29T08:40:40;12.00;99.90
10411;DHT22;5251;52.112;8.606;2022-12-29T08:43:06;12.00;99.90
10411;DHT22;5251;52.112;8.606;2022-12-29T08:45:32;12.10;99.90
10411;DHT22;5251;52.112;8.606;2022-12-29T08:47:57;12.10;99.90
10411;DHT22;5251;52.112;8.606;2022-12-29T08:50:23;12.10;99.90
10411;DHT22;5251;52.112;8.606;2022-12-29T08:52:49;12.10;99.90
10411;DHT22;5251;52.112;8.606;2022-12-29T08:55:14;12.10;99.90
10411;DHT22;5251;52.112;8.606;2022-12-29T08:57:40;12.20;99.90
10411;DHT22;5251;52.112;8.606;2022-12-29T09:00:06;12.20;99.90
10411;DHT22;5251;52.112;8.606;2022-12-29T09:02:32;12.20;99.90
10411;DHT22;5251;52.112;8.606;2022-12-29T09:04:58;12.20;99.90
10411;DHT22;5251;52.112;8.606;2022-12-29T09:07:24;12.20;99.90
10411;DHT22;5251;52.112;8.606;2022-12-29T09:09:50;12.30;99.90
10411;DHT22;5251;52.112;8.606;2022-12-29T09:12:16;12.30;99.90
10411;DHT22;5251;52.112;8.606;2022-12-29T09:14:42;12.30;99.90
10411;DHT22;5251;52.112;8.606;2022-12-29T09:17:10;12.30;99.90
10411;DHT22;5251;52.112;8.606;2022-12-29T09:19:54;12.30;99.90
10411;DHT22;5251;52.112;8.606;2022-12-29T09:22:20;12.30;99.90
10411;DHT22;5251;52.112;8.606;2022-12-29T09:24:46;12.40;99.90
10411;DHT22;5251;52.112;8.606;2022-12-29T09:27:11;12.30;99.90
10411;DHT22;5251;52.112;8.606;2022-12-29T09:29:37;12.40;99.90
10411;DHT22;5251;52.112;8.606;2022-12-29T09:32:03;12.40;99.90
10411;DHT22;5251;52.112;8.606;2022-12-29T09:34:28;12.40;99.90
10411;DHT22;5251;52.112;8.606;2022-12-29T09:36:54;12.40;99.90
10411;DHT22;5251;52.112;8.606;2022-12-29T09:39:21;12.50;99.90
10411;DHT22;5251;52.112;8.606;2022-12-29T09:42:12;12.60;99.90
10411;DHT22;5251;52.112;8.606;2022-12-29T09:47:13;12.70;99.90
10411;DHT22;5251;52.112;8.606;2022-12-29T09:52:18;12.90;99.90
10411;DHT22;5251;52.112;8.606;2022-12-29T09:57:24;13.00;99.90
10411;DHT22;5251;52.112;8.606;2022-12-29T09:59:55;13.10;99.90
10411;DHT22;5251;52.112;8.606;2022-12-29T10:02:37;13.10;99.90
10411;DHT22;5251;52.112;8.606;2022-12-29T10:05:04;13.10;99.90
10411;DHT22;5251;52.112;8.606;2022-12-29T10:07:40;13.10;99.90
10411;DHT22;5251;52.112;8.606;2022-12-29T10:18:37;13.10;99.90
10411;DHT22;5251;52.112;8.606;2022-12-29T10:23:53;13.20;99.90
10411;DHT22;5251;52.112;8.606;2022-12-29T10:26:23;13.10;99.90
10411;DHT22;5251;52.112;8.606;2022-12-29T10:28:59;13.10;99.90
10411;DHT22;5251;52.112;8.606;2022-12-29T10:32:00;13.10;99.90
10411;DHT22;5251;52.112;8.606;2022-12-29T10:34:31;13.10;99.90
10411;DHT22;5251;52.112;8.606;2022-12-29T10:37:05;13.10;99.90
10411;DHT22;5251;52.112;8.606;2022-12-29T10:39:43;13.10;99.90
10411;DHT22;5251;52.112;8.606;2022-12-29T10:42:15;13.10;99.90
10411;DHT22;5251;52.112;8.606;2022-12-29T10:44:45;13.20;99.90
10411;DHT22;5251;52.112;8.606;2022-12-29T10:47:19;13.20;99.90
10411;DHT22;5251;52.112;8.606;2022-12-29T10:49:47;13.30;99.90
10411;DHT22;5251;52.112;8.606;2022-12-29T10:52:15;13.40;99.90
10411;DHT22;5251;52.112;8.606;2022-12-29T10:54:49;13.40;99.90
10411;DHT22;5251;52.112;8.606;2022-12-29T10:59:59;13.50;99.70
10411;DHT22;5251;52.112;8.606;2022-12-29T11:02:47;13.50;99.30
10411;DHT22;5251;52.112;8.606;2022-12-29T11:08:12;13.70;98.40
10411;DHT22;5251;52.112;8.606;2022-12-29T11:10:44;13.70;98.50
10411;DHT22;5251;52.112;8.606;2022-12-29T11:15:46;13.80;97.80
10411;DHT22;5251;52.112;8.606;2022-12-29T11:18:26;13.90;98.00
10411;DHT22;5251;52.112;8.606;2022-12-29T11:20:55;13.90;98.20
10411;DHT22;5251;52.112;8.606;2022-12-29T11:23:24;14.00;98.20
10411;DHT22;5251;52.112;8.606;2022-12-29T11:26:13;14.00;98.10
10411;DHT22;5251;52.112;8.606;2022-12-29T11:28:41;14.10;98.40
10411;DHT22;5251;52.112;8.606;2022-12-29T11:31:08;14.10;98.60
10411;DHT22;5251;52.112;8.606;2022-12-29T11:33:35;14.10;98.30
10411;DHT22;5251;52.112;8.606;2022-12-29T11:36:13;14.00;98.10
10411;DHT22;5251;52.112;8.606;2022-12-29T11:38:48;14.10;98.20
10411;DHT22;5251;52.112;8.606;2022-12-29T11:41:23;14.10;98.00
10411;DHT22;5251;52.112;8.606;2022-12-29T11:43:50;14.10;98.00
10411;DHT22;5251;52.112;8.606;2022-12-29T11:46:20;14.10;98.00
10411;DHT22;5251;52.112;8.606;2022-12-29T11:48:48;14.00;98.10
10411;DHT22;5251;52.112;8.606;2022-12-29T11:51:25;14.10;97.90
10411;DHT22;5251;52.112;8.606;2022-12-29T11:53:55;14.10;98.00
10411;DHT22;5251;52.112;8.606;2022-12-29T11:56:41;14.10;97.90
10411;DHT22;5251;52.112;8.606;2022-12-29T11:59:37;14.10;98.20
10411;DHT22;5251;52.112;8.606;2022-12-29T12:04:43;14.10;97.90
10411;DHT22;5251;52.112;8.606;2022-12-29T12:09:50;14.10;97.50
10411;DHT22;5251;52.112;8.606;2022-12-29T12:12:53;14.10;97.50
10411;DHT22;5251;52.112;8.606;2022-12-29T12:15:31;14.10;97.50
10411;DHT22;5251;52.112;8.606;2022-12-29T12:18:08;14.10;97.50
10411;DHT22;5251;52.112;8.606;2022-12-29T12:21:04;14.10;97.30
10411;DHT22;5251;52.112;8.606;2022-12-29T12:23:39;14.10;97.20
10411;DHT22;5251;52.112;8.606;2022-12-29T12:26:21;14.10;96.90
10411;DHT22;5251;52.112;8.606;2022-12-29T12:28:56;14.10;97.00
10411;DHT22;5251;52.112;8.606;2022-12-29T12:31:52;14.10;96.60
10411;DHT22;5251;52.112;8.606;2022-12-29T12:34:30;14.10;96.70
10411;DHT22;5251;52.112;8.606;2022-12-29T12:45:48;14.10;96.20
10411;DHT22;5251;52.112;8.606;2022-12-29T12:50:49;14.10;96.20
10411;DHT22;5251;52.112;8.606;2022-12-29T13:01:10;14.10;96.20
10411;DHT22;5251;52.112;8.606;2022-12-29T13:10:02;14.10;96.20
10411;DHT22;5251;52.112;8.606;2022-12-29T13:15:40;14.10;96.20
10411;DHT22;5251;52.112;8.606;2022-12-29T13:18:19;14.10;96.20
10411;DHT22;5251;52.112;8.606;2022-12-29T13:20:53;14.10;96.20
10411;DHT22;5251;52.112;8.606;2022-12-29T13:26:24;14.10;96.60
10411;DHT22;5251;52.112;8.606;2022-12-29T13:29:46;14.10;96.20
10411;DHT22;5251;52.112;8.606;2022-12-29T13:37:35;14.10;96.00
10411;DHT22;5251;52.112;8.606;2022-12-29T13:40:14;14.10;96.20
10411;DHT22;5251;52.112;8.606;2022-12-29T13:42:42;14.10;96.00
10411;DHT22;5251;52.112;8.606;2022-12-29T13:45:29;14.10;95.90
10411;DHT22;5251;52.112;8.606;2022-12-29T13:50:35;14.10;96.20
10411;DHT22;5251;52.112;8.606;2022-12-29T13:56:11;14.00;96.20
10411;DHT22;5251;52.112;8.606;2022-12-29T13:58:53;14.00;96.30
10411;DHT22;5251;52.112;8.606;2022-12-29T14:01:28;13.90;96.30
10411;DHT22;5251;52.112;8.606;2022-12-29T14:03:57;13.90;96.20
10411;DHT22;5251;52.112;8.606;2022-12-29T14:06:25;13.90;96.30
10411;DHT22;5251;52.112;8.606;2022-12-29T14:08:54;13.90;96.20
10411;DHT22;5251;52.112;8.606;2022-12-29T14:11:22;13.90;96.40
10411;DHT22;5251;52.112;8.606;2022-12-29T14:13:50;13.90;96.30
10411;DHT22;5251;52.112;8.606;2022-12-29T14:16:31;13.80;96.20
10411;DHT22;5251;52.112;8.606;2022-12-29T14:19:16;13.80;96.20
10411;DHT22;5251;52.112;8.606;2022-12-29T14:22:00;13.80;96.40
10411;DHT22;5251;52.112;8.606;2022-12-29T14:34:46;13.50;96.40
10411;DHT22;5251;52.112;8.606;2022-12-29T14:40:25;13.40;96.40
10411;DHT22;5251;52.112;8.606;2022-12-29T14:42:55;13.40;96.60
10411;DHT22;5251;52.112;8.606;2022-12-29T14:45:26;13.20;96.80
10411;DHT22;5251;52.112;8.606;2022-12-29T14:47:53;13.30;97.00
10411;DHT22;5251;52.112;8.606;2022-12-29T14:50:24;13.20;97.10
10411;DHT22;5251;52.112;8.606;2022-12-29T14:55:53;13.20;97.30
10411;DHT22;5251;52.112;8.606;2022-12-29T14:58:53;13.20;97.40
10411;DHT22;5251;52.112;8.606;2022-12-29T15:01:22;13.20;97.60
10411;DHT22;5251;52.112;8.606;2022-12-29T15:03:50;13.30;97.50
10411;DHT22;5251;52.112;8.606;2022-12-29T15:06:18;13.20;97.60
10411;DHT22;5251;52.112;8.606;2022-12-29T15:08:55;13.20;97.60
10411;DHT22;5251;52.112;8.606;2022-12-29T15:14:03;13.20;97.60
10411;DHT22;5251;52.112;8.606;2022-12-29T15:16:33;13.20;97.70
10411;DHT22;5251;52.112;8.606;2022-12-29T15:19:02;13.30;97.70
10411;DHT22;5251;52.112;8.606;2022-12-29T15:21:34;13.30;97.60
10411;DHT22;5251;52.112;8.606;2022-12-29T15:24:00;13.30;97.70
10411;DHT22;5251;52.112;8.606;2022-12-29T15:26:40;13.20;97.50
10411;DHT22;5251;52.112;8.606;2022-12-29T15:31:55;13.30;97.60
10411;DHT22;5251;52.112;8.606;2022-12-29T15:34:21;13.30;97.70
10411;DHT22;5251;52.112;8.606;2022-12-29T15:36:49;13.30;97.70
10411;DHT22;5251;52.112;8.606;2022-12-29T15:39:20;13.20;97.60
10411;DHT22;5251;52.112;8.606;2022-12-29T15:41:57;13.30;97.60
10411;DHT22;5251;52.112;8.606;2022-12-29T15:44:40;13.20;97.70
10411;DHT22;5251;52.112;8.606;2022-12-29T15:47:18;13.20;97.50
10411;DHT22;5251;52.112;8.606;2022-12-29T15:49:47;13.20;97.30
10411;DHT22;5251;52.112;8.606;2022-12-29T15:52:18;13.10;97.10
10411;DHT22;5251;52.112;8.606;2022-12-29T15:54:45;13.20;96.90
10411;DHT22;5251;52.112;8.606;2022-12-29T15:57:22;13.10;97.00
10411;DHT22;5251;52.112;8.606;2022-12-29T15:59:48;13.10;97.00
10411;DHT22;5251;52.112;8.606;2022-12-29T16:02:14;13.10;96.90
10411;DHT22;5251;52.112;8.606;2022-12-29T16:04:40;13.10;96.70
10411;DHT22;5251;52.112;8.606;2022-12-29T16:07:28;13.10;96.70
10411;DHT22;5251;52.112;8.606;2022-12-29T16:10:00;13.10;96.70
10411;DHT22;5251;52.112;8.606;2022-12-29T16:12:36;13.00;97.10
10411;DHT22;5251;52.112;8.606;2022-12-29T16:15:12;13.00;96.80
10411;DHT22;5251;52.112;8.606;2022-12-29T16:17:50;13.00;96.90
10411;DHT22;5251;52.112;8.606;2022-12-29T16:20:25;13.00;97.00
10411;DHT22;5251;52.112;8.606;2022-12-29T16:22:58;13.00;96.90
10411;DHT22;5251;52.112;8.606;2022-12-29T16:25:34;13.00;96.90
10411;DHT22;5251;52.112;8.606;2022-12-29T16:28:16;13.00;97.10
10411;DHT22;5251;52.112;8.606;2022-12-29T16:30:42;13.00;97.20
10411;DHT22;5251;52.112;8.606;2022-12-29T16:36:31;13.00;97.20
10411;DHT22;5251;52.112;8.606;2022-12-29T16:39:30;13.00;97.10
10411;DHT22;5251;52.112;8.606;2022-12-29T16:41:56;13.00;97.10
10411;DHT22;5251;52.112;8.606;2022-12-29T16:44:24;13.00;97.10
10411;DHT22;5251;52.112;8.606;2022-12-29T16:49:23;13.00;97.00
10411;DHT22;5251;52.112;8.606;2022-12-29T16:51:49;13.00;97.10
10411;DHT22;5251;52.112;8.606;2022-12-29T16:54:32;13.00;97.20
10411;DHT22;5251;52.112;8.606;2022-12-29T16:56:59;13.00;97.20
10411;DHT22;5251;52.112;8.606;2022-12-29T16:59:42;13.00;97.40
10411;DHT22;5251;52.112;8.606;2022-12-29T17:02:14;13.00;97.70
10411;DHT22;5251;52.112;8.606;2022-12-29T17:04:40;13.00;97.80
10411;DHT22;5251;52.112;8.606;2022-12-29T17:07:17;13.00;97.90
10411;DHT22;5251;52.112;8.606;2022-12-29T17:09:43;13.00;97.90
10411;DHT22;5251;52.112;8.606;2022-12-29T17:12:13;13.00;97.90
10411;DHT22;5251;52.112;8.606;2022-12-29T17:17:30;13.00;98.20
10411;DHT22;5251;52.112;8.606;2022-12-29T17:20:01;13.00;99.70
10411;DHT22;5251;52.112;8.606;2022-12-29T17:22:28;13.00;99.90
10411;DHT22;5251;52.112;8.606;2022-12-29T17:24:56;12.90;99.90
10411;DHT22;5251;52.112;8.606;2022-12-29T17:29:48;12.70;99.90
10411;DHT22;5251;52.112;8.606;2022-12-29T17:32:14;12.60;99.90
10411;DHT22;5251;52.112;8.606;2022-12-29T17:34:40;12.50;99.90
10411;DHT22;5251;52.112;8.606;2022-12-29T17:39:50;12.20;99.90
10411;DHT22;5251;52.112;8.606;2022-12-29T17:42:17;12.10;99.90
10411;DHT22;5251;52.112;8.606;2022-12-29T17:44:43;12.00;99.90
10411;DHT22;5251;52.112;8.606;2022-12-29T17:47:10;11.90;99.90
10411;DHT22;5251;52.112;8.606;2022-12-29T17:49:36;11.90;99.90
10411;DHT22;5251;52.112;8.606;2022-12-29T17:52:02;11.80;99.90
10411;DHT22;5251;52.112;8.606;2022-12-29T17:54:28;11.70;99.90
10411;DHT22;5251;52.112;8.606;2022-12-29T17:56:54;11.70;99.90
10411;DHT22;5251;52.112;8.606;2022-12-29T17:59:20;11.60;99.90
10411;DHT22;5251;52.112;8.606;2022-12-29T18:01:47;11.60;99.90
10411;DHT22;5251;52.112;8.606;2022-12-29T18:04:17;11.60;99.90
10411;DHT22;5251;52.112;8.606;2022-12-29T18:06:43;11.50;99.90
10411;DHT22;5251;52.112;8.606;2022-12-29T18:09:09;11.50;99.90
10411;DHT22;5251;52.112;8.606;2022-12-29T18:11:40;11.50;99.90
10411;DHT22;5251;52.112;8.606;2022-12-29T18:14:13;11.50;99.90
10411;DHT22;5251;52.112;8.606;2022-12-29T18:16:39;11.40;99.90
10411;DHT22;5251;52.112;8.606;2022-12-29T18:19:04;11.50;99.90
10411;DHT22;5251;52.112;8.606;2022-12-29T18:21:30;11.40;99.90
10411;DHT22;5251;52.112;8.606;2022-12-29T18:23:56;11.40;99.90
10411;DHT22;5251;52.112;8.606;2022-12-29T18:26:26;11.40;99.90
10411;DHT22;5251;52.112;8.606;2022-12-29T18:28:53;11.30;99.90
10411;DHT22;5251;52.112;8.606;2022-12-29T18:33:47;11.30;99.90
10411;DHT22;5251;52.112;8.606;2022-12-29T18:36:14;11.20;99.90
10411;DHT22;5251;52.112;8.606;2022-12-29T18:38:41;11.30;99.90